Weather observations for the past three days for
Natchez, Hardy-Anders Field Natchez-Adams County Airport
Imperial (Metric)
Date Time (cdt) Wind (mph) Vis. (mi.) Weather Sky Cond. Temperature (ºF) Relative Humidity Wind Chill (°F) Heat Index (°F) Pressure Precipitation (in)
Air Dwpt 6 hour altimeter (in) sea level (mb) 1 hr 3 hr 6 hr
Max. Min.
10 07:56 N 6 2.50 Fog/Mist OVC003 66 66 100% 30.04 1017.2
10 06:56 Calm 1.00 Fog/Mist OVC003 64.9 64.9 66 64.9 100% 30.01 1016.0
10 05:56 Calm 6.00 Fog/Mist OVC003 64.9 64.9 100% 29.98 1015.1
10 04:56 Calm 2.50 Fog/Mist OVC003 64.9 64.9 100% 29.96 1014.4
10 03:56 S 6 3.00 Fog/Mist OVC003 64.9 64.9 100% 29.94 1013.7
10 02:56 S 5 6.00 Fog/Mist OVC003 64.9 64.9 100% 29.93 1013.3
10 01:56 SE 3 5.00 Fog/Mist OVC003 66 64.9 96% 29.92 1013.0
10 00:56 S 8 10.00 Overcast OVC003 66 64.9 69.1 66 96% 29.93 1013.4
09 23:56 S 9 10.00 Overcast OVC005 66 66 100% 29.92 1013.1
09 22:56 S 6 10.00 Mostly Cloudy BKN005 66.9 66 97% 29.94 1013.5
09 21:56 SE 5 10.00 A Few Clouds FEW013 66.9 66 97% 29.93 1013.4
09 20:56 Calm 10.00 Fair CLR 66.9 66 97% 29.92 1013.0
09 19:56 Calm 10.00 Mostly Cloudy SCT055 BKN100 68 66.9 96% 29.89 1012.1
09 18:56 S 6 10.00 Overcast OVC012 69.1 66.9 75 69.1 93% 29.88 1011.7 0.37
09 17:56 S 5 10.00 Overcast FEW009 BKN014 OVC018 69.1 66.9 93% 29.88 1011.5
09 16:56 S 8 10.00 Overcast OVC009 69.1 66.9 93% 29.87 1011.2 0.37
09 15:56 Calm 10.00 Overcast BKN021 OVC048 73.9 69.1 85% 29.86 1010.8
09 14:56 SE 3 9.00 Overcast SCT019 OVC044 75 69.1 82% 75 29.87 1011.4
09 13:56 Calm 10.00 Overcast SCT017 OVC040 75 68 79% 76 29.88 1011.7
09 12:56 N 3 10.00 Overcast OVC015 73 66.9 73 64 81% 29.89 1011.9
09 11:56 E 3 10.00 Overcast FEW013 BKN047 OVC055 72 66 82% 29.9 1012.3
09 10:56 E 7 10.00 Mostly Cloudy BKN009 BKN060 71.1 66 84% 29.91 1012.5
09 09:56 SE 6 10.00 Overcast OVC007 69.1 66 90% 29.91 1012.6
09 08:56 E 6 10.00 Overcast OVC003 64.9 64 97% 29.89 1011.9
09 07:56 N 8 10.00 Mostly Cloudy BKN005 64.9 64 97% 29.89 1011.9
09 06:56 S 7 10.00 Mostly Cloudy BKN090 BKN110 64 63 64.9 63 96% 29.84 1010.4 0.55
09 05:56 E 7 10.00 Light Rain FEW090 OVC110 64.9 63 93% 29.84 1010.2 0.06
09 04:56 N 14 G 46 1.75 Thunderstorm Heavy Rain Fog/Mist BKN007 OVC012 64 63 96% 29.89 1012.1 0.48
09 03:56 Calm 9.00 Overcast OVC010 64 64 100% 29.82 1009.7 0.01
09 02:56 S 3 1.00 Fog/Mist FEW001 SCT018 BKN026 63 63 100% 29.83 1009.9 0.01
09 01:56 SE 3 6.00 Light Rain Fog/Mist FEW014 SCT026 BKN070 64 64 100% 29.86 1011.0
09 00:56 Calm 7.00 Partly Cloudy SCT007 64 64 66 64 100% 29.89 1012.1
08 23:56 N 5 10.00 Overcast OVC007 64.9 64.9 100% 29.89 1012.1
08 22:56 S 7 10.00 Partly Cloudy SCT005 66 64.9 96% 29.86 1011.3
08 21:56 S 6 10.00 Partly Cloudy SCT006 64.9 64.9 100% 29.86 1011.3
08 20:56 N 3 10.00 Overcast OVC008 64.9 64.9 100% 29.88 1011.8
08 19:56 Calm 10.00 Overcast BKN006 OVC010 66 64 93% 29.87 1011.4
08 18:56 SE 5 10.00 Overcast OVC004 64.9 64 66 63 97% 29.88 1011.9
08 17:56 S 6 10.00 Overcast OVC004 64.9 64 97% 29.88 1012.0
08 16:56 SE 6 10.00 Overcast OVC006 66 64 93% 29.9 1012.4
08 15:56 E 5 10.00 Overcast OVC006 64.9 63 93% 29.89 1012.3
08 14:56 Vrbl 5 10.00 Overcast OVC006 64 63 96% 29.92 1013.1
08 13:56 E 5 10.00 Overcast OVC006 63 62.1 97% 29.92 1013.2
08 12:56 E 9 10.00 Light Rain BKN008 OVC030 63 62.1 64 60.1 97% 29.92 1013.2 0.01 0.24
08 11:56 E 7 10.00 Light Rain BKN006 BKN028 BKN070 63 62.1 97% 29.94 1013.7 0.12
08 10:56 N 6 5.00 Light Rain Fog/Mist FEW006 BKN055 OVC070 60.1 60.1 100% 30.01 1016.4 0.09
08 09:56 SW 5 8.00 Thunderstorm in Vicinity Light Rain BKN055 OVC070 61 59 93% 30.04 1017.1 0.02 0.02
08 08:56 N 6 9.00 Thunderstorm BKN120 60.1 57.9 93% 29.97 1014.9
08 07:56 E 6 10.00 Fair CLR 61 57 87% 29.97 1014.9
08 06:56 NE 6 10.00 A Few Clouds FEW060 60.1 57.9 60.1 59 93% 29.99 1015.5
08 05:56 Calm 9.00 A Few Clouds FEW065 59 59 100% 29.98 1015.4
08 04:56 Calm 7.00 Fair CLR 59 57.9 96% 29.97 1014.8
08 03:56 Calm 6.00 Fog/Mist CLR 59 59 100% 29.98 1015.0
08 02:56 NE 3 10.00 Fair CLR 60.1 59 96% 29.96 1014.6
08 01:56 N 5 7.00 Fair CLR 60.1 60.1 100% 29.97 1014.9
08 00:56 SE 5 9.00 Fair CLR 60.1 59 64 60.1 96% 30 1015.8
07 23:56 SE 5 10.00 Fair CLR 61 60.1 97% 29.99 1015.6
07 22:56 E 3 10.00 Fair CLR 61 60.1 97% 29.99 1015.6
07 21:56 E 3 10.00 Fair CLR 62.1 60.1 93% 30 1015.7
07 20:56 Calm 10.00 Fair CLR 62.1 61 96% 29.99 1015.6
07 19:56 Calm 10.00 Fair CLR 63 61 93% 29.98 1015.2
07 18:56 SE 3 10.00 Fair CLR 64 60.1 66.9 61 87% 29.99 1015.4
07 17:56 E 3 10.00 Fair CLR 66 60.1 81% 29.99 1015.4
07 16:56 NE 3 10.00 Fair CLR 66.9 60.1 79% 29.99 1015.6
07 15:56 NE 3 10.00 Mostly Cloudy BKN019 64.9 59 81% 30 1015.9
07 14:56 N 8 10.00 Overcast OVC013 63 57.9 84% 30.01 1016.0
07 13:56 N 9 10.00 Overcast OVC009 62.1 57.9 86% 30.02 1016.4
07 12:56 N 9 10.00 Overcast OVC009 61 57 61 55.9 87% 30.02 1016.6
07 11:56 N 13 10.00 Overcast OVC009 61 57 87% 30.04 1017.1
07 10:56 N 7 10.00 Overcast OVC007 60.1 57 90% 30.03 1017.0
07 09:56 N 5 10.00 Overcast OVC005 59 57 93% 30.03 1016.9
07 08:56 N 6 8.00 Overcast OVC005 57.9 55.9 93% 30.02 1016.5
Date Time (cdt) Wind (mph) Vis. (mi.) Weather Sky Cond. Air Dwpt Max. Min. Relative Humidity Wind Chill (°F) Heat Index (°F) altimeter (in) sea level (mb) 1 hr 3 hr 6 hr
6 hour
Temperature (ºF) Pressure Precipitation (in)